sensor_id;sensor_type;location;lat;lon;timestamp;pressure;altitude;pressure_sealevel;temperature;humidity
79142;BME280;68550;-26.480;29.234;2023-04-24T00:03:46;84375.38;;;23.93;21.10
79142;BME280;68550;-26.480;29.234;2023-04-24T00:05:46;84378.82;;;24.25;20.97
79142;BME280;68550;-26.480;29.234;2023-04-24T00:08:13;84377.16;;;24.19;21.11
79142;BME280;68550;-26.480;29.234;2023-04-24T00:10:37;84375.25;;;24.31;21.02
79142;BME280;68550;-26.480;29.234;2023-04-24T00:13:02;84373.38;;;24.35;21.01
79142;BME280;68550;-26.480;29.234;2023-04-24T00:15:28;84367.36;;;24.33;20.97
79142;BME280;68550;-26.480;29.234;2023-04-24T00:17:53;84367.27;;;24.25;20.74
79142;BME280;68550;-26.480;29.234;2023-04-24T00:20:19;84368.02;;;24.47;20.62
79142;BME280;68550;-26.480;29.234;2023-04-24T00:22:44;84367.10;;;24.61;20.46
79142;BME280;68550;-26.480;29.234;2023-04-24T00:34:51;84359.17;;;24.70;20.22
79142;BME280;68550;-26.480;29.234;2023-04-24T00:37:16;84361.01;;;24.72;20.16
79142;BME280;68550;-26.480;29.234;2023-04-24T00:44:38;84365.36;;;24.62;20.09
79142;BME280;68550;-26.480;29.234;2023-04-24T00:46:58;84365.01;;;24.78;20.36
79142;BME280;68550;-26.480;29.234;2023-04-24T00:49:23;84362.95;;;23.89;21.05
79142;BME280;68550;-26.480;29.234;2023-04-24T00:51:50;84364.77;;;23.86;20.96
79142;BME280;68550;-26.480;29.234;2023-04-24T00:54:14;84365.08;;;23.93;20.96
79142;BME280;68550;-26.480;29.234;2023-04-24T00:56:43;84367.81;;;23.98;21.10
79142;BME280;68550;-26.480;29.234;2023-04-24T01:06:01;84370.51;;;22.73;22.33
79142;BME280;68550;-26.480;29.234;2023-04-24T01:08:28;84367.79;;;22.97;22.07
79142;BME280;68550;-26.480;29.234;2023-04-24T01:10:53;84364.75;;;23.55;21.69
79142;BME280;68550;-26.480;29.234;2023-04-24T01:13:18;84363.21;;;23.63;21.43
79142;BME280;68550;-26.480;29.234;2023-04-24T01:15:43;84357.74;;;23.94;21.42
79142;BME280;68550;-26.480;29.234;2023-04-24T01:18:08;84356.46;;;24.01;21.06
79142;BME280;68550;-26.480;29.234;2023-04-24T01:20:37;84359.46;;;23.99;20.81
79142;BME280;68550;-26.480;29.234;2023-04-24T01:22:59;84364.23;;;23.84;20.76
79142;BME280;68550;-26.480;29.234;2023-04-24T01:25:25;84363.95;;;24.09;20.56
79142;BME280;68550;-26.480;29.234;2023-04-24T01:27:50;84365.16;;;24.22;20.53
79142;BME280;68550;-26.480;29.234;2023-04-24T01:30:15;84362.22;;;24.32;20.39
79142;BME280;68550;-26.480;29.234;2023-04-24T01:32:43;84358.79;;;23.96;20.46
79142;BME280;68550;-26.480;29.234;2023-04-24T01:35:07;84361.71;;;24.30;20.49
79142;BME280;68550;-26.480;29.234;2023-04-24T01:37:32;84363.72;;;24.29;20.53
79142;BME280;68550;-26.480;29.234;2023-04-24T01:39:58;84365.17;;;24.05;20.39
79142;BME280;68550;-26.480;29.234;2023-04-24T01:42:22;84363.65;;;24.27;20.14
79142;BME280;68550;-26.480;29.234;2023-04-24T01:44:48;84359.02;;;24.20;20.25
79142;BME280;68550;-26.480;29.234;2023-04-24T01:47:14;84354.99;;;24.01;20.25
79142;BME280;68550;-26.480;29.234;2023-04-24T01:49:39;84352.98;;;23.69;20.74
79142;BME280;68550;-26.480;29.234;2023-04-24T01:52:04;84351.02;;;23.40;21.04
79142;BME280;68550;-26.480;29.234;2023-04-24T01:54:29;84349.15;;;23.63;20.87
79142;BME280;68550;-26.480;29.234;2023-04-24T01:56:55;84351.18;;;23.40;20.99
79142;BME280;68550;-26.480;29.234;2023-04-24T01:59:23;84351.47;;;23.43;21.06
79142;BME280;68550;-26.480;29.234;2023-04-24T02:01:46;84353.92;;;23.96;20.83
79142;BME280;68550;-26.480;29.234;2023-04-24T02:04:11;84352.43;;;23.78;20.71
79142;BME280;68550;-26.480;29.234;2023-04-24T02:06:37;84354.21;;;23.62;20.74
79142;BME280;68550;-26.480;29.234;2023-04-24T02:09:03;84353.98;;;23.32;20.94
79142;BME280;68550;-26.480;29.234;2023-04-24T02:11:28;84355.48;;;23.86;21.05
79142;BME280;68550;-26.480;29.234;2023-04-24T02:13:53;84356.34;;;22.94;21.38
79142;BME280;68550;-26.480;29.234;2023-04-24T02:16:18;84354.86;;;23.54;21.10
79142;BME280;68550;-26.480;29.234;2023-04-24T02:18:44;84358.96;;;23.59;21.26
79142;BME280;68550;-26.480;29.234;2023-04-24T02:21:09;84362.97;;;23.98;20.79
79142;BME280;68550;-26.480;29.234;2023-04-24T02:23:35;84364.09;;;24.05;20.61
79142;BME280;68550;-26.480;29.234;2023-04-24T02:26:00;84361.94;;;24.13;20.50
79142;BME280;68550;-26.480;29.234;2023-04-24T02:28:25;84360.83;;;24.03;20.58
79142;BME280;68550;-26.480;29.234;2023-04-24T02:30:51;84358.32;;;24.03;20.56
79142;BME280;68550;-26.480;29.234;2023-04-24T02:33:16;84353.27;;;24.37;20.45
79142;BME280;68550;-26.480;29.234;2023-04-24T02:35:41;84354.35;;;23.93;20.45
79142;BME280;68550;-26.480;29.234;2023-04-24T02:38:07;84353.85;;;24.20;20.39
79142;BME280;68550;-26.480;29.234;2023-04-24T02:40:35;84352.32;;;23.89;20.43
79142;BME280;68550;-26.480;29.234;2023-04-24T02:42:57;84354.38;;;23.88;20.67
79142;BME280;68550;-26.480;29.234;2023-04-24T02:45:23;84354.20;;;24.13;20.67
79142;BME280;68550;-26.480;29.234;2023-04-24T02:47:48;84357.39;;;24.35;20.49
79142;BME280;68550;-26.480;29.234;2023-04-24T02:50:14;84359.74;;;23.42;21.00
79142;BME280;68550;-26.480;29.234;2023-04-24T02:52:39;84358.08;;;23.07;21.16
79142;BME280;68550;-26.480;29.234;2023-04-24T02:55:06;84354.88;;;23.61;20.93
79142;BME280;68550;-26.480;29.234;2023-04-24T02:57:32;84354.52;;;23.39;21.05
79142;BME280;68550;-26.480;29.234;2023-04-24T02:59:56;84359.41;;;23.21;21.12
79142;BME280;68550;-26.480;29.234;2023-04-24T03:02:21;84358.96;;;23.84;20.93
79142;BME280;68550;-26.480;29.234;2023-04-24T03:04:46;84359.05;;;23.63;20.96
79142;BME280;68550;-26.480;29.234;2023-04-24T03:07:12;84356.76;;;23.40;21.01
79142;BME280;68550;-26.480;29.234;2023-04-24T03:09:37;84357.27;;;23.57;21.14
79142;BME280;68550;-26.480;29.234;2023-04-24T03:12:03;84358.88;;;23.28;21.00
79142;BME280;68550;-26.480;29.234;2023-04-24T03:14:28;84362.32;;;23.13;21.35
79142;BME280;68550;-26.480;29.234;2023-04-24T03:16:56;84363.90;;;23.31;21.19
79142;BME280;68550;-26.480;29.234;2023-04-24T03:19:19;84361.36;;;23.61;20.97
79142;BME280;68550;-26.480;29.234;2023-04-24T03:21:44;84362.50;;;23.48;20.75
79142;BME280;68550;-26.480;29.234;2023-04-24T03:24:10;84361.69;;;23.61;20.49
79142;BME280;68550;-26.480;29.234;2023-04-24T03:26:36;84360.00;;;24.11;20.44
79142;BME280;68550;-26.480;29.234;2023-04-24T03:29:02;84361.02;;;24.13;20.21
79142;BME280;68550;-26.480;29.234;2023-04-24T03:31:26;84362.55;;;23.87;20.36
79142;BME280;68550;-26.480;29.234;2023-04-24T03:33:52;84364.94;;;23.82;20.29
79142;BME280;68550;-26.480;29.234;2023-04-24T03:36:17;84364.21;;;24.02;20.47
79142;BME280;68550;-26.480;29.234;2023-04-24T03:38:42;84362.51;;;23.94;20.33
79142;BME280;68550;-26.480;29.234;2023-04-24T03:41:08;84357.98;;;23.89;20.36
79142;BME280;68550;-26.480;29.234;2023-04-24T03:43:35;84359.51;;;23.85;20.36
79142;BME280;68550;-26.480;29.234;2023-04-24T03:45:59;84361.67;;;23.92;20.35
79142;BME280;68550;-26.480;29.234;2023-04-24T03:48:26;84366.90;;;23.44;20.73
79142;BME280;68550;-26.480;29.234;2023-04-24T03:50:50;84367.11;;;23.67;20.77
79142;BME280;68550;-26.480;29.234;2023-04-24T03:53:15;84366.74;;;23.26;20.97
79142;BME280;68550;-26.480;29.234;2023-04-24T03:55:40;84369.38;;;23.24;20.97
79142;BME280;68550;-26.480;29.234;2023-04-24T03:58:06;84374.45;;;23.12;20.92
79142;BME280;68550;-26.480;29.234;2023-04-24T04:00:33;84377.66;;;23.09;20.99
79142;BME280;68550;-26.480;29.234;2023-04-24T04:02:57;84379.21;;;22.95;21.09
79142;BME280;68550;-26.480;29.234;2023-04-24T04:05:22;84378.89;;;22.99;21.08
79142;BME280;68550;-26.480;29.234;2023-04-24T04:07:47;84379.91;;;23.24;21.00
79142;BME280;68550;-26.480;29.234;2023-04-24T04:10:13;84385.10;;;23.58;20.70
79142;BME280;68550;-26.480;29.234;2023-04-24T04:12:40;84385.68;;;23.18;21.04
79142;BME280;68550;-26.480;29.234;2023-04-24T04:15:04;84385.98;;;23.32;20.94
79142;BME280;68550;-26.480;29.234;2023-04-24T04:17:29;84383.14;;;23.22;21.14
79142;BME280;68550;-26.480;29.234;2023-04-24T04:19:55;84385.78;;;23.31;20.94
79142;BME280;68550;-26.480;29.234;2023-04-24T04:22:20;84385.67;;;22.95;21.07
79142;BME280;68550;-26.480;29.234;2023-04-24T04:24:46;84385.84;;;23.50;20.90
79142;BME280;68550;-26.480;29.234;2023-04-24T04:27:11;84388.87;;;23.71;20.60
79142;BME280;68550;-26.480;29.234;2023-04-24T04:29:37;84387.56;;;23.85;20.46
79142;BME280;68550;-26.480;29.234;2023-04-24T04:32:02;84388.20;;;23.82;20.43
79142;BME280;68550;-26.480;29.234;2023-04-24T04:34:28;84388.66;;;23.80;20.37
79142;BME280;68550;-26.480;29.234;2023-04-24T04:36:55;84386.57;;;23.55;20.54
79142;BME280;68550;-26.480;29.234;2023-04-24T04:39:19;84387.37;;;23.79;20.36
79142;BME280;68550;-26.480;29.234;2023-04-24T04:41:44;84391.85;;;23.85;20.36
79142;BME280;68550;-26.480;29.234;2023-04-24T04:44:09;84395.34;;;24.00;20.22
79142;BME280;68550;-26.480;29.234;2023-04-24T04:46:35;84395.16;;;23.76;20.42
79142;BME280;68550;-26.480;29.234;2023-04-24T04:49:00;84396.76;;;23.54;20.68
79142;BME280;68550;-26.480;29.234;2023-04-24T04:51:30;84398.25;;;23.47;20.86
79142;BME280;68550;-26.480;29.234;2023-04-24T04:53:51;84406.83;;;23.21;21.09
79142;BME280;68550;-26.480;29.234;2023-04-24T04:56:18;84407.07;;;22.78;21.25
79142;BME280;68550;-26.480;29.234;2023-04-24T04:58:42;84407.86;;;23.11;20.88
79142;BME280;68550;-26.480;29.234;2023-04-24T05:01:08;84414.39;;;22.63;21.26
79142;BME280;68550;-26.480;29.234;2023-04-24T05:03:34;84417.86;;;23.01;21.59
79142;BME280;68550;-26.480;29.234;2023-04-24T05:05:59;84421.18;;;23.25;21.40
79142;BME280;68550;-26.480;29.234;2023-04-24T05:08:24;84427.88;;;23.26;21.56
79142;BME280;68550;-26.480;29.234;2023-04-24T05:10:49;84428.84;;;23.24;21.77
79142;BME280;68550;-26.480;29.234;2023-04-24T05:13:15;84430.27;;;23.25;21.76
79142;BME280;68550;-26.480;29.234;2023-04-24T05:15:43;84433.21;;;22.93;22.12
79142;BME280;68550;-26.480;29.234;2023-04-24T05:18:06;84439.01;;;23.05;22.01
79142;BME280;68550;-26.480;29.234;2023-04-24T05:20:31;84443.93;;;23.12;21.94
79142;BME280;68550;-26.480;29.234;2023-04-24T05:22:57;84447.85;;;23.13;21.99
79142;BME280;68550;-26.480;29.234;2023-04-24T05:25:22;84453.88;;;23.00;22.16
79142;BME280;68550;-26.480;29.234;2023-04-24T05:27:48;84453.83;;;23.00;21.98
79142;BME280;68550;-26.480;29.234;2023-04-24T05:30:13;84460.36;;;23.61;21.82
79142;BME280;68550;-26.480;29.234;2023-04-24T05:32:38;84463.25;;;23.22;21.98
79142;BME280;68550;-26.480;29.234;2023-04-24T05:35:04;84464.51;;;23.14;22.12
79142;BME280;68550;-26.480;29.234;2023-04-24T05:37:29;84462.42;;;23.14;21.94
79142;BME280;68550;-26.480;29.234;2023-04-24T05:39:57;84466.17;;;23.51;21.83
79142;BME280;68550;-26.480;29.234;2023-04-24T05:42:20;84467.25;;;23.75;21.65
79142;BME280;68550;-26.480;29.234;2023-04-24T05:44:45;84469.32;;;23.78;21.69
79142;BME280;68550;-26.480;29.234;2023-04-24T05:47:11;84466.37;;;23.93;21.51
79142;BME280;68550;-26.480;29.234;2023-04-24T05:49:37;84466.05;;;23.70;21.50
79142;BME280;68550;-26.480;29.234;2023-04-24T05:52:03;84469.33;;;23.69;21.51
79142;BME280;68550;-26.480;29.234;2023-04-24T05:54:27;84472.08;;;24.10;21.41
79142;BME280;68550;-26.480;29.234;2023-04-24T05:56:52;84474.27;;;23.98;21.39
79142;BME280;68550;-26.480;29.234;2023-04-24T05:59:18;84476.28;;;24.00;21.45
79142;BME280;68550;-26.480;29.234;2023-04-24T06:01:43;84475.56;;;24.21;21.45
79142;BME280;68550;-26.480;29.234;2023-04-24T06:04:09;84474.65;;;24.31;21.40
79142;BME280;68550;-26.480;29.234;2023-04-24T06:06:35;84479.80;;;24.16;21.30
79142;BME280;68550;-26.480;29.234;2023-04-24T06:08:59;84487.63;;;24.06;21.42
79142;BME280;68550;-26.480;29.234;2023-04-24T06:11:25;84490.42;;;23.95;21.31
79142;BME280;68550;-26.480;29.234;2023-04-24T06:13:51;84490.95;;;24.11;21.21
79142;BME280;68550;-26.480;29.234;2023-04-24T06:16:16;84492.56;;;24.08;21.22
79142;BME280;68550;-26.480;29.234;2023-04-24T06:18:41;84497.04;;;24.55;21.24
79142;BME280;68550;-26.480;29.234;2023-04-24T06:21:08;84495.19;;;24.22;21.13
79142;BME280;68550;-26.480;29.234;2023-04-24T06:23:33;84498.94;;;24.50;21.12
79142;BME280;68550;-26.480;29.234;2023-04-24T06:25:58;84501.72;;;24.21;21.16
79142;BME280;68550;-26.480;29.234;2023-04-24T06:28:27;84504.62;;;24.27;21.14
79142;BME280;68550;-26.480;29.234;2023-04-24T06:30:48;84503.51;;;24.43;21.05
79142;BME280;68550;-26.480;29.234;2023-04-24T06:33:15;84500.88;;;24.52;21.01
79142;BME280;68550;-26.480;29.234;2023-04-24T06:35:39;84504.10;;;24.76;21.01
79142;BME280;68550;-26.480;29.234;2023-04-24T06:38:05;84504.27;;;24.84;20.96
79142;BME280;68550;-26.480;29.234;2023-04-24T06:40:30;84502.12;;;24.25;21.15
79142;BME280;68550;-26.480;29.234;2023-04-24T06:42:56;84500.29;;;24.68;21.02
79142;BME280;68550;-26.480;29.234;2023-04-24T06:45:21;84498.79;;;24.61;21.17
79142;BME280;68550;-26.480;29.234;2023-04-24T06:47:47;84499.37;;;24.75;21.01
79142;BME280;68550;-26.480;29.234;2023-04-24T06:50:11;84504.13;;;24.76;20.99
79142;BME280;68550;-26.480;29.234;2023-04-24T06:52:37;84505.12;;;24.48;21.07
79142;BME280;68550;-26.480;29.234;2023-04-24T06:55:03;84506.77;;;24.19;21.46
79142;BME280;68550;-26.480;29.234;2023-04-24T06:57:29;84508.94;;;24.56;21.01
79142;BME280;68550;-26.480;29.234;2023-04-24T06:59:53;84509.38;;;24.53;21.03
79142;BME280;68550;-26.480;29.234;2023-04-24T07:06:41;84510.91;;;23.86;22.07
79142;BME280;68550;-26.480;29.234;2023-04-24T07:09:09;84512.22;;;23.96;21.79
79142;BME280;68550;-26.480;29.234;2023-04-24T07:13:58;84511.93;;;24.58;21.27
79142;BME280;68550;-26.480;29.234;2023-04-24T07:16:23;84506.45;;;24.77;21.15
79142;BME280;68550;-26.480;29.234;2023-04-24T07:28:30;84501.33;;;25.05;20.77
79142;BME280;68550;-26.480;29.234;2023-04-24T07:40:39;84495.82;;;25.24;20.74
79142;BME280;68550;-26.480;29.234;2023-04-24T07:45:28;84493.27;;;24.90;20.89
79142;BME280;68550;-26.480;29.234;2023-04-24T07:47:53;84491.34;;;25.47;20.82
79142;BME280;68550;-26.480;29.234;2023-04-24T07:50:19;84488.36;;;25.39;20.91
79142;BME280;68550;-26.480;29.234;2023-04-24T07:52:45;84485.80;;;25.40;20.93
79142;BME280;68550;-26.480;29.234;2023-04-24T07:55:09;84484.39;;;25.07;21.01
79142;BME280;68550;-26.480;29.234;2023-04-24T07:57:35;84486.76;;;24.91;21.36
79142;BME280;68550;-26.480;29.234;2023-04-24T08:02:26;84486.79;;;24.89;21.03
79142;BME280;68550;-26.480;29.234;2023-04-24T08:04:51;84487.88;;;24.95;20.97
79142;BME280;68550;-26.480;29.234;2023-04-24T08:07:16;84485.71;;;25.24;20.93
79142;BME280;68550;-26.480;29.234;2023-04-24T08:09:42;84484.94;;;25.21;20.97
79142;BME280;68550;-26.480;29.234;2023-04-24T08:26:40;84478.37;;;25.16;20.83
79142;BME280;68550;-26.480;29.234;2023-04-24T08:29:06;84481.59;;;25.52;20.71
79142;BME280;68550;-26.480;29.234;2023-04-24T08:31:31;84480.27;;;25.15;20.75
79142;BME280;68550;-26.480;29.234;2023-04-24T08:38:57;84475.25;;;25.17;20.89
79142;BME280;68550;-26.480;29.234;2023-04-24T08:46:04;84474.57;;;25.41;20.72
79142;BME280;68550;-26.480;29.234;2023-04-24T08:53:22;84467.53;;;25.36;20.92
79142;BME280;68550;-26.480;29.234;2023-04-24T08:55:47;84465.48;;;25.71;20.87
79142;BME280;68550;-26.480;29.234;2023-04-24T08:58:12;84465.49;;;25.43;20.93
79142;BME280;68550;-26.480;29.234;2023-04-24T09:00:36;84459.79;;;25.33;21.04
79142;BME280;68550;-26.480;29.234;2023-04-24T09:03:14;84457.03;;;24.95;21.36
79142;BME280;68550;-26.480;29.234;2023-04-24T09:05:40;84454.46;;;25.20;21.16
79142;BME280;68550;-26.480;29.234;2023-04-24T09:08:07;84454.35;;;25.09;21.27
79142;BME280;68550;-26.480;29.234;2023-04-24T09:10:30;84450.82;;;25.23;21.16
79142;BME280;68550;-26.480;29.234;2023-04-24T09:12:56;84446.12;;;25.35;21.06
79142;BME280;68550;-26.480;29.234;2023-04-24T09:15:21;84440.64;;;25.15;21.18
79142;BME280;68550;-26.480;29.234;2023-04-24T09:17:46;84438.75;;;25.22;21.13
79142;BME280;68550;-26.480;29.234;2023-04-24T09:20:12;84433.90;;;25.19;21.15
79142;BME280;68550;-26.480;29.234;2023-04-24T09:22:37;84429.37;;;25.29;20.82
79142;BME280;68550;-26.480;29.234;2023-04-24T09:25:06;84428.68;;;25.26;21.08
79142;BME280;68550;-26.480;29.234;2023-04-24T09:27:29;84423.84;;;25.49;20.96
79142;BME280;68550;-26.480;29.234;2023-04-24T09:29:57;84427.86;;;25.55;21.05
79142;BME280;68550;-26.480;29.234;2023-04-24T09:32:20;84421.99;;;25.33;21.04
79142;BME280;68550;-26.480;29.234;2023-04-24T09:34:44;84421.53;;;25.33;21.09
79142;BME280;68550;-26.480;29.234;2023-04-24T09:37:09;84414.48;;;25.49;21.20
79142;BME280;68550;-26.480;29.234;2023-04-24T09:39:35;84406.98;;;25.54;20.61
79142;BME280;68550;-26.480;29.234;2023-04-24T09:42:03;84404.73;;;25.22;20.93
79142;BME280;68550;-26.480;29.234;2023-04-24T09:44:27;84404.04;;;25.42;21.02
79142;BME280;68550;-26.480;29.234;2023-04-24T09:46:55;84402.30;;;25.68;21.04
79142;BME280;68550;-26.480;29.234;2023-04-24T09:49:21;84397.26;;;25.69;21.08
79142;BME280;68550;-26.480;29.234;2023-04-24T09:51:42;84394.09;;;25.84;21.18
79142;BME280;68550;-26.480;29.234;2023-04-24T09:54:13;84388.57;;;25.33;21.25
79142;BME280;68550;-26.480;29.234;2023-04-24T09:56:34;84383.65;;;25.39;21.27
79142;BME280;68550;-26.480;29.234;2023-04-24T09:59:05;84382.84;;;25.45;21.26
79142;BME280;68550;-26.480;29.234;2023-04-24T10:01:31;84378.12;;;25.37;21.38
79142;BME280;68550;-26.480;29.234;2023-04-24T10:03:49;84377.14;;;25.34;21.41
79142;BME280;68550;-26.480;29.234;2023-04-24T10:06:14;84377.00;;;25.40;21.40
79142;BME280;68550;-26.480;29.234;2023-04-24T10:08:39;84376.94;;;25.49;21.29
79142;BME280;68550;-26.480;29.234;2023-04-24T10:11:05;84373.53;;;25.58;21.28
79142;BME280;68550;-26.480;29.234;2023-04-24T10:13:33;84367.32;;;25.60;21.47
79142;BME280;68550;-26.480;29.234;2023-04-24T10:15:57;84357.11;;;25.42;21.44
79142;BME280;68550;-26.480;29.234;2023-04-24T10:18:21;84355.74;;;25.72;21.42
79142;BME280;68550;-26.480;29.234;2023-04-24T10:20:47;84351.69;;;25.50;21.42
79142;BME280;68550;-26.480;29.234;2023-04-24T10:23:13;84348.17;;;25.48;21.46
79142;BME280;68550;-26.480;29.234;2023-04-24T10:25:37;84342.03;;;25.55;21.43
79142;BME280;68550;-26.480;29.234;2023-04-24T10:28:05;84337.73;;;25.50;21.48
79142;BME280;68550;-26.480;29.234;2023-04-24T10:30:30;84329.92;;;25.60;21.63
79142;BME280;68550;-26.480;29.234;2023-04-24T10:32:53;84326.64;;;25.45;21.60
79142;BME280;68550;-26.480;29.234;2023-04-24T10:35:19;84325.30;;;25.67;21.59
79142;BME280;68550;-26.480;29.234;2023-04-24T10:37:46;84327.50;;;25.48;21.60
79142;BME280;68550;-26.480;29.234;2023-04-24T10:40:12;84320.52;;;25.27;21.60
79142;BME280;68550;-26.480;29.234;2023-04-24T10:42:39;84316.80;;;25.55;21.59
79142;BME280;68550;-26.480;29.234;2023-04-24T10:45:05;84313.82;;;25.46;21.69
79142;BME280;68550;-26.480;29.234;2023-04-24T10:47:27;84312.06;;;25.55;21.66
79142;BME280;68550;-26.480;29.234;2023-04-24T10:49:51;84303.02;;;25.59;21.64
79142;BME280;68550;-26.480;29.234;2023-04-24T10:52:20;84296.68;;;25.54;21.68
79142;BME280;68550;-26.480;29.234;2023-04-24T10:54:45;84292.72;;;25.59;21.62
79142;BME280;68550;-26.480;29.234;2023-04-24T10:57:26;84295.61;;;25.58;21.68
79142;BME280;68550;-26.480;29.234;2023-04-24T10:59:38;84296.24;;;25.71;21.61
79142;BME280;68550;-26.480;29.234;2023-04-24T11:01:58;84289.52;;;25.54;21.74
79142;BME280;68550;-26.480;29.234;2023-04-24T11:04:31;84283.12;;;25.58;21.68
79142;BME280;68550;-26.480;29.234;2023-04-24T11:06:51;84286.52;;;25.59;21.69
79142;BME280;68550;-26.480;29.234;2023-04-24T11:09:16;84278.70;;;25.51;21.73
79142;BME280;68550;-26.480;29.234;2023-04-24T11:11:45;84284.41;;;25.68;21.51
79142;BME280;68550;-26.480;29.234;2023-04-24T11:14:13;84280.83;;;25.56;21.68
79142;BME280;68550;-26.480;29.234;2023-04-24T11:16:32;84282.18;;;25.53;21.67
79142;BME280;68550;-26.480;29.234;2023-04-24T11:19:03;84278.60;;;25.31;21.64
79142;BME280;68550;-26.480;29.234;2023-04-24T11:21:24;84274.57;;;25.50;21.66
79142;BME280;68550;-26.480;29.234;2023-04-24T11:23:47;84269.49;;;25.76;21.64
79142;BME280;68550;-26.480;29.234;2023-04-24T11:26:14;84266.52;;;25.51;21.67
79142;BME280;68550;-26.480;29.234;2023-04-24T11:28:37;84267.52;;;25.53;21.64
79142;BME280;68550;-26.480;29.234;2023-04-24T11:33:28;84259.55;;;25.57;21.61
79142;BME280;68550;-26.480;29.234;2023-04-24T11:35:54;84261.42;;;25.71;21.51
79142;BME280;68550;-26.480;29.234;2023-04-24T11:38:19;84257.00;;;25.82;21.62
79142;BME280;68550;-26.480;29.234;2023-04-24T11:40:44;84255.78;;;25.69;21.57
79142;BME280;68550;-26.480;29.234;2023-04-24T11:43:12;84253.62;;;25.60;21.56
79142;BME280;68550;-26.480;29.234;2023-04-24T11:45:35;84247.55;;;25.65;21.60
79142;BME280;68550;-26.480;29.234;2023-04-24T11:48:00;84251.51;;;25.60;21.52
79142;BME280;68550;-26.480;29.234;2023-04-24T11:50:26;84249.59;;;25.60;21.59
79142;BME280;68550;-26.480;29.234;2023-04-24T11:52:51;84240.83;;;25.77;21.44
79142;BME280;68550;-26.480;29.234;2023-04-24T11:55:28;84234.68;;;25.72;21.24
79142;BME280;68550;-26.480;29.234;2023-04-24T11:57:44;84233.12;;;25.74;21.35
79142;BME280;68550;-26.480;29.234;2023-04-24T12:00:09;84235.35;;;25.67;21.26
79142;BME280;68550;-26.480;29.234;2023-04-24T12:02:33;84233.58;;;25.61;21.40
79142;BME280;68550;-26.480;29.234;2023-04-24T12:04:58;84227.25;;;25.50;21.50
79142;BME280;68550;-26.480;29.234;2023-04-24T12:07:25;84220.64;;;25.59;21.40
79142;BME280;68550;-26.480;29.234;2023-04-24T12:09:55;84220.42;;;25.75;21.26
79142;BME280;68550;-26.480;29.234;2023-04-24T12:12:16;84225.84;;;25.39;21.36
79142;BME280;68550;-26.480;29.234;2023-04-24T12:14:45;84221.79;;;25.67;21.34
79142;BME280;68550;-26.480;29.234;2023-04-24T12:17:05;84221.19;;;25.57;21.31
79142;BME280;68550;-26.480;29.234;2023-04-24T12:19:32;84223.45;;;25.56;21.37
79142;BME280;68550;-26.480;29.234;2023-04-24T12:22:02;84223.73;;;25.59;21.37
79142;BME280;68550;-26.480;29.234;2023-04-24T12:24:21;84218.44;;;25.59;21.32
79142;BME280;68550;-26.480;29.234;2023-04-24T12:26:47;84222.40;;;25.48;21.43
79142;BME280;68550;-26.480;29.234;2023-04-24T12:29:12;84220.63;;;25.46;21.22
79142;BME280;68550;-26.480;29.234;2023-04-24T12:31:38;84212.56;;;25.68;21.24
79142;BME280;68550;-26.480;29.234;2023-04-24T12:34:03;84211.84;;;25.33;21.37
79142;BME280;68550;-26.480;29.234;2023-04-24T12:36:28;84211.75;;;25.68;21.27
79142;BME280;68550;-26.480;29.234;2023-04-24T12:38:54;84214.49;;;25.73;21.25
79142;BME280;68550;-26.480;29.234;2023-04-24T12:41:18;84209.94;;;25.73;21.30
79142;BME280;68550;-26.480;29.234;2023-04-24T12:43:53;84208.80;;;25.74;21.34
79142;BME280;68550;-26.480;29.234;2023-04-24T12:46:09;84216.90;;;25.69;21.37
79142;BME280;68550;-26.480;29.234;2023-04-24T12:48:35;84220.61;;;25.69;21.40
79142;BME280;68550;-26.480;29.234;2023-04-24T12:51:03;84213.86;;;25.72;21.41
79142;BME280;68550;-26.480;29.234;2023-04-24T12:53:26;84214.57;;;25.67;21.47
79142;BME280;68550;-26.480;29.234;2023-04-24T12:55:51;84214.19;;;25.68;21.45
79142;BME280;68550;-26.480;29.234;2023-04-24T12:58:16;84213.25;;;25.80;21.36
79142;BME280;68550;-26.480;29.234;2023-04-24T13:00:43;84211.64;;;25.77;21.42
79142;BME280;68550;-26.480;29.234;2023-04-24T13:03:08;84210.32;;;25.73;21.46
79142;BME280;68550;-26.480;29.234;2023-04-24T13:05:32;84209.40;;;25.61;21.53
79142;BME280;68550;-26.480;29.234;2023-04-24T13:08:01;84214.08;;;25.93;21.47
79142;BME280;68550;-26.480;29.234;2023-04-24T13:10:23;84216.95;;;25.64;21.50
79142;BME280;68550;-26.480;29.234;2023-04-24T13:12:49;84213.83;;;25.38;21.51
79142;BME280;68550;-26.480;29.234;2023-04-24T13:15:15;84214.78;;;25.63;21.45
79142;BME280;68550;-26.480;29.234;2023-04-24T13:17:40;84218.41;;;25.74;21.38
79142;BME280;68550;-26.480;29.234;2023-04-24T13:20:06;84217.46;;;25.62;21.43
79142;BME280;68550;-26.480;29.234;2023-04-24T13:22:30;84218.30;;;25.78;21.31
79142;BME280;68550;-26.480;29.234;2023-04-24T13:24:56;84220.56;;;25.68;21.37
79142;BME280;68550;-26.480;29.234;2023-04-24T13:27:21;84220.31;;;26.01;21.34
79142;BME280;68550;-26.480;29.234;2023-04-24T13:29:49;84220.39;;;25.68;21.35
79142;BME280;68550;-26.480;29.234;2023-04-24T13:32:12;84222.33;;;25.77;21.29
79142;BME280;68550;-26.480;29.234;2023-04-24T13:34:37;84222.21;;;25.80;21.31
79142;BME280;68550;-26.480;29.234;2023-04-24T13:37:03;84221.31;;;25.90;21.23
79142;BME280;68550;-26.480;29.234;2023-04-24T13:39:29;84222.30;;;25.78;21.20
79142;BME280;68550;-26.480;29.234;2023-04-24T13:41:54;84225.17;;;25.74;21.32
79142;BME280;68550;-26.480;29.234;2023-04-24T13:44:21;84223.52;;;25.85;21.25
79142;BME280;68550;-26.480;29.234;2023-04-24T13:46:46;84220.94;;;25.83;20.95
79142;BME280;68550;-26.480;29.234;2023-04-24T13:49:10;84224.39;;;25.97;21.09
79142;BME280;68550;-26.480;29.234;2023-04-24T13:51:35;84226.36;;;25.86;21.20
79142;BME280;68550;-26.480;29.234;2023-04-24T13:54:01;84222.64;;;26.00;21.08
79142;BME280;68550;-26.480;29.234;2023-04-24T13:56:26;84219.72;;;26.00;21.12